Latest Weather Observations for Tewantin

IDQ60801

Issued at 8:32 pm EST Monday 2 May 2016 (issued every 30 minutes, with the page automatically refreshed every 10 minutes)

About weather observations | Map of weather stations | Latest weather observations for QLD | Other Formats
Station Details ID: 040908 Name: TEWANTIN RSL PARK Lat: -26.39 Lon: 153.04 Height: 6.4 m
Data from the previous 72 hours. | See also: Recent months at Tewantin
Date/Time
EST
Temp
°C
App
Temp
°C
Dew
Point
Rel
Hum
%
Delta-T
°C
Wind Press
QNH
hPa
Press
MSL
hPa
Rain
since 9 am
mm
Dir
 
Spd
km/h
Gust
km/h
Spd
kts
Gust
kts
02/08:30pm 23.1 27.9 22.8 98 0.2 SW 2 7 1 4 1015.6 1015.6 0.0
02/08:00pm 23.1 27.7 22.4 96 0.5 SW 2 6 1 3 1015.3 1015.3 0.0
02/07:30pm 23.2 27.4 22.4 95 0.5 S 4 6 2 3 1015.2 1015.2 0.0
02/07:00pm 23.4 28.0 22.4 94 0.7 SSE 2 7 1 4 1015.1 1015.1 0.0
02/06:30pm 23.4 28.0 22.4 94 0.7 S 2 6 1 3 1015.2 1015.2 0.0
02/06:00pm 23.6 27.5 22.6 94 0.7 S 6 9 3 5 1014.8 1014.8 0.0
02/05:30pm 23.6 27.1 21.9 90 1.1 SE 6 9 3 5 1014.3 1014.3 0.0
02/05:00pm 24.0 27.4 21.7 87 1.5 ESE 6 7 3 4 1014.2 1014.2 0.0
02/04:30pm 24.3 28.1 21.0 82 2.2 E 2 7 1 4 1014.0 1014.0 0.0
02/04:00pm 24.5 26.9 20.8 80 2.4 E 9 13 5 7 1013.5 1013.5 0.0
02/03:30pm 24.7 26.7 20.8 79 2.6 ESE 11 15 6 8 1013.4 1013.4 0.0
02/03:00pm 24.8 26.8 20.7 78 2.7 E 11 15 6 8 1013.2 1013.2 0.0
02/02:30pm 25.5 27.4 20.5 74 3.3 E 11 15 6 8 1013.6 1013.6 0.0
02/02:00pm 25.6 27.7 20.2 72 3.5 ESE 9 15 5 8 1013.7 1013.7 0.0
02/01:30pm 25.8 27.7 20.6 73 3.4 E 11 13 6 7 1014.1 1014.1 0.0
02/01:00pm 25.7 28.0 20.7 74 3.3 E 9 13 5 7 1014.5 1014.5 0.0
02/12:30pm 25.7 27.5 21.1 76 3.0 E 13 19 7 10 1014.9 1014.9 0.0
02/12:00pm 25.4 27.3 20.6 75 3.1 ESE 11 17 6 9 1015.3 1015.3 0.0
02/11:30am 25.9 27.4 19.8 69 4.0 E 11 17 6 9 1015.7 1015.7 0.0
02/11:00am 26.3 28.8 20.2 69 4.0 SSE 7 13 4 7 1016.2 1016.2 0.0
02/10:30am 25.4 28.0 20.4 74 3.3 ESE 7 9 4 5 1016.4 1016.4 0.0
02/10:00am 25.0 27.4 20.9 78 2.7 SE 9 17 5 9 1016.6 1016.6 0.0
02/09:30am 24.7 27.7 21.2 81 2.3 S 7 9 4 5 1017.1 1017.1 0.0
02/09:00am 23.7 27.4 21.4 87 1.5 SSW 4 11 2 6 1017.3 1017.3 2.0
02/08:30am 22.8 26.0 21.6 93 0.8 S 7 9 4 5 1016.9 1016.9 2.0
02/08:00am 21.8 24.6 21.6 99 0.1 SSW 9 11 5 6 1017.0 1017.0 2.0
02/07:30am 21.0 23.9 21.0 100 0.0 S 7 9 4 5 1016.8 1016.8 2.0
02/07:00am 20.8 23.6 20.8 100 0.0 S 7 11 4 6 1016.8 1016.8 2.0
02/06:30am 20.1 23.9 20.1 100 0.0 CALM 0 2 0 1 1016.4 1016.4 2.0
02/06:00am 20.3 24.2 20.3 100 0.0 CALM 0 0 0 0 1015.9 1015.9 2.0
02/05:30am 20.0 23.3 20.0 100 0.0 S 2 6 1 3 1015.6 1015.6 2.0
02/05:00am 20.1 22.5 20.1 100 0.0 S 7 11 4 6 1015.2 1015.2 2.0
02/04:30am 20.2 22.7 20.2 100 0.0 SSW 7 11 4 6 1015.0 1015.0 2.0
02/04:00am 20.2 24.0 20.2 100 0.0 CALM 0 0 0 0 1014.3 1014.3 2.0
02/03:30am 20.2 24.0 20.2 100 0.0 CALM 0 6 0 3 1014.4 1014.4 2.0
02/03:00am 20.3 23.4 20.3 100 0.0 NNW 4 7 2 4 1014.6 1014.6 2.0
02/02:30am 20.3 23.4 20.3 100 0.0 W 4 7 2 4 1015.1 1015.1 2.0
02/02:00am 20.6 23.5 20.6 100 0.0 WSW 6 7 3 4 1015.4 1015.4 2.0
02/01:30am 20.7 23.4 20.7 100 0.0 SW 7 9 4 5 1015.7 1015.7 2.0
02/01:00am 21.0 24.4 21.0 100 0.0 W 4 7 2 4 1015.9 1015.9 2.0
02/12:30am 21.0 25.1 20.8 99 0.1 CALM 0 0 0 0 1016.2 1016.2 2.0
02/12:00am 21.4 25.7 21.2 99 0.1 CALM 0 4 0 2 1016.3 1016.3 2.0
 
Date/Time
EST
Temp
°C
App
Temp
°C
Dew
Point
Rel
Hum
%
Delta-T
°C
Wind Press
QNH
hPa
Press
MSL
hPa
Rain
since 9 am
mm
Dir
 
Spd
km/h
Gust
km/h
Spd
kts
Gust
kts
01/11:30pm 21.6 24.9 21.4 99 0.1 NNW 6 7 3 4 1016.7 1016.7 2.0
01/11:00pm 21.8 26.3 21.6 99 0.1 CALM 0 6 0 3 1017.2 1017.2 2.0
01/10:30pm 22.1 25.6 21.9 99 0.1 SW 6 9 3 5 1017.1 1017.1 2.0
01/10:00pm 22.0 26.6 21.8 99 0.1 CALM 0 7 0 4 1017.2 1017.2 2.0
01/09:30pm 21.9 26.5 21.7 99 0.1 CALM 0 6 0 3 1017.0 1017.0 2.0
01/09:00pm 21.8 26.3 21.6 99 0.1 CALM 0 0 0 0 1016.8 1016.8 2.0
01/08:30pm 22.0 25.9 21.8 99 0.1 WSW 4 7 2 4 1016.9 1016.9 2.0
01/08:00pm 22.0 26.6 21.8 99 0.1 CALM 0 0 0 0 1016.6 1016.6 2.0
01/07:30pm 22.1 26.6 21.6 97 0.3 CALM 0 0 0 0 1016.6 1016.6 2.0
01/07:00pm 22.5 27.2 22.0 97 0.3 CALM 0 0 0 0 1016.2 1016.2 2.0
01/06:30pm 22.7 26.1 21.7 94 0.7 S 6 7 3 4 1016.2 1016.2 2.0
01/06:00pm 22.9 26.2 21.9 94 0.7 S 7 11 4 6 1016.3 1016.3 2.0
01/05:30pm 23.0 27.0 22.0 94 0.7 SSE 4 7 2 4 1015.9 1015.9 2.0
01/05:00pm 23.3 26.4 22.1 93 0.8 SSE 9 15 5 8 1015.9 1015.9 2.0
01/04:30pm 23.6 26.6 22.6 94 0.7 SSE 11 19 6 10 1015.6 1015.6 2.0
01/04:00pm 24.0 26.7 22.8 93 0.8 SSE 13 22 7 12 1015.5 1015.5 2.0
01/03:30pm 24.0 27.4 23.3 96 0.5 SE 11 17 6 9 1015.1 1015.1 2.0
01/03:00pm 25.1 28.5 23.3 90 1.2 ESE 11 17 6 9 1014.7 1014.7 2.0
01/02:30pm 25.5 29.3 23.4 88 1.4 ESE 9 13 5 7 1014.5 1014.5 2.0
01/02:00pm 25.5 29.1 23.0 86 1.7 ESE 9 11 5 6 1014.5 1014.5 2.0
01/01:30pm 25.7 30.3 24.1 91 1.1 E 7 11 4 6 1014.5 1014.5 2.0
01/01:00pm 24.5 29.1 23.8 96 0.5 ESE 6 9 3 5 1014.9 1014.9 2.0
01/12:30pm 24.3 28.4 23.3 94 0.7 SE 7 9 4 5 1015.5 1015.5 1.8
01/12:00pm 24.6 30.1 23.4 93 0.8 CALM 0 0 0 0 1015.9 1015.9 1.8
01/11:30am 24.7 29.0 23.7 94 0.7 ESE 7 11 4 6 1016.3 1016.3 1.6
01/11:00am 24.3 28.9 23.8 97 0.3 NE 6 7 3 4 1017.0 1017.0 1.6
01/10:30am 23.8 27.8 23.8 100 0.0 NE 9 13 5 7 1017.5 1017.5 1.6
01/10:00am 23.1 26.7 23.1 100 0.0 NE 9 15 5 8 1018.1 1018.1 1.4
01/09:30am 22.8 26.3 22.8 100 0.0 NE 9 17 5 9 1018.4 1018.4 1.4
01/09:00am 22.7 25.7 22.7 100 0.0 N 11 15 6 8 1018.5 1018.5 42.6
01/08:30am 22.6 27.3 22.6 100 0.0 NW 2 6 1 3 1018.4 1018.4 41.0
01/08:00am 22.5 26.7 22.5 100 0.0 NW 4 7 2 4 1018.3 1018.3 39.4
01/07:30am 22.4 27.3 22.4 100 0.0 CALM 0 4 0 2 1018.4 1018.4 38.4
01/07:00am 22.3 26.0 22.3 100 0.0 NNW 6 9 3 5 1018.0 1018.0 35.8
01/06:30am 22.6 26.3 22.6 100 0.0 N 7 9 4 5 1017.4 1017.4 27.8
01/06:00am 22.3 25.9 22.3 100 0.0 N 7 9 4 5 1017.6 1017.6 20.0
01/05:30am 21.9 24.9 21.9 100 0.0 WNW 9 15 5 8 1017.4 1017.4 18.8
01/05:00am 21.9 25.4 21.9 100 0.0 SSW 6 9 3 5 1017.1 1017.1 18.6
01/04:30am 21.9 25.4 21.9 100 0.0 S 6 7 3 4 1017.0 1017.0 18.2
01/04:00am 21.6 24.8 21.6 100 0.0 W 7 15 4 8 1017.2 1017.2 16.4
01/03:30am 21.5 25.6 21.5 100 0.0 S 2 13 1 7 1017.1 1017.1 15.6
01/03:00am 21.5 24.6 21.5 100 0.0 S 7 11 4 6 1017.3 1017.3 14.6
01/02:30am 21.6 24.0 21.6 100 0.0 S 11 15 6 8 1017.5 1017.5 14.4
01/02:00am 21.5 24.6 21.5 100 0.0 SSW 7 15 4 8 1017.8 1017.8 14.4
01/01:30am 21.6 24.8 21.6 100 0.0 SSW 7 13 4 7 1018.0 1018.0 11.8
01/01:00am 21.5 24.3 21.5 100 0.0 SSW 9 13 5 7 1018.3 1018.3 11.8
01/12:30am 21.6 25.0 21.6 100 0.0 SSW 6 13 3 7 1018.5 1018.5 9.6
01/12:00am 21.6 24.8 21.6 100 0.0 SSW 7 9 4 5 1018.9 1018.9 7.4
 
Date/Time
EST
Temp
°C
App
Temp
°C
Dew
Point
Rel
Hum
%
Delta-T
°C
Wind Press
QNH
hPa
Press
MSL
hPa
Rain
since 9 am
mm
Dir
 
Spd
km/h
Gust
km/h
Spd
kts
Gust
kts
30/11:30pm 21.7 24.9 21.7 100 0.0 SSW 7 11 4 6 1018.9 1018.9 6.8
30/11:00pm 21.6 25.0 21.6 100 0.0 SSW 6 9 3 5 1019.4 1019.4 6.4
30/10:30pm 21.6 25.0 21.6 100 0.0 SSW 6 9 3 5 1019.6 1019.6 4.8
30/10:00pm 21.6 24.4 21.6 100 0.0 SSW 9 13 5 7 1019.7 1019.7 4.8
30/09:30pm 21.8 24.7 21.8 100 0.0 S 9 15 5 8 1019.9 1019.9 4.8
30/09:00pm 21.7 24.6 21.7 100 0.0 S 9 13 5 7 1020.1 1020.1 3.2
30/08:30pm 21.8 25.1 21.8 100 0.0 SSE 7 9 4 5 1020.2 1020.2 2.6
30/08:00pm 21.8 25.1 21.8 100 0.0 S 7 9 4 5 1020.0 1020.0 1.8
30/07:30pm 21.9 25.3 21.7 99 0.1 S 6 9 3 5 1019.5 1019.5 1.8
30/07:00pm 21.9 25.1 21.7 99 0.1 S 7 11 4 6 1019.3 1019.3 1.8
30/06:30pm 22.0 25.3 21.8 99 0.1 S 7 11 4 6 1019.3 1019.3 1.8
30/06:00pm 22.1 25.6 21.9 99 0.1 S 6 7 3 4 1019.2 1019.2 1.8
30/05:30pm 22.2 25.8 22.0 99 0.1 SE 6 9 3 5 1018.9 1018.9 1.8
30/05:00pm 22.7 25.2 21.7 94 0.7 ENE 11 17 6 9 1018.8 1018.8 1.8
30/04:30pm 22.9 25.7 21.5 92 0.9 ENE 9 19 5 10 1018.6 1018.6 1.8
30/04:00pm 23.1 24.8 21.0 88 1.4 NE 13 19 7 10 1018.4 1018.4 1.8
30/03:30pm 24.0 26.7 21.3 85 1.8 E 9 13 5 7 1018.4 1018.4 1.8
30/03:00pm 24.2 26.9 20.7 81 2.3 ESE 7 9 4 5 1018.2 1018.2 1.8
30/02:30pm 23.9 28.0 23.0 95 0.6 SSW 6 9 3 5 1018.3 1018.3 1.8
30/02:00pm 23.2 26.9 22.5 96 0.5 ESE 7 17 4 9 1018.3 1018.3 1.8
30/01:30pm 23.0 26.5 22.8 99 0.1 S 9 13 5 7 1018.5 1018.5 1.8
30/01:00pm 23.3 25.7 21.6 90 1.1 E 11 20 6 11 1018.8 1018.8 0.4
30/12:30pm 24.5 28.0 22.8 90 1.1 SSE 9 15 5 8 1018.9 1018.9 0.0
30/12:00pm 24.5 26.1 20.8 80 2.4 ESE 13 20 7 11 1019.4 1019.4 0.0
30/11:30am 25.7 28.0 22.0 80 2.5 SE 13 19 7 10 1019.9 1019.9 0.0
30/11:00am 25.3 28.3 22.0 82 2.2 SE 9 13 5 7 1020.4 1020.4 0.0
30/10:30am 24.8 28.0 21.7 83 2.1 SE 7 13 4 7 1020.9 1020.9 0.0
30/10:00am 25.2 28.4 21.7 81 2.3 SE 7 13 4 7 1021.1 1021.1 0.0
30/09:30am 25.0 28.3 21.9 83 2.1 SSE 7 13 4 7 1021.2 1021.2 0.0
30/09:00am 24.3 28.0 22.6 90 1.1 SSE 7 11 4 6 1021.2 1021.2 0.6
30/08:30am 23.3 26.9 22.3 94 0.7 S 7 11 4 6 1021.2 1021.2 0.6
30/08:00am 22.2 25.8 22.0 99 0.1 SSE 6 9 3 5 1021.2 1021.2 0.6
30/07:30am 21.4 24.4 21.2 99 0.1 S 7 9 4 5 1021.1 1021.1 0.0
30/07:00am 20.9 23.6 20.7 99 0.1 S 7 11 4 6 1020.7 1020.7 0.0
30/06:30am 20.8 23.5 20.6 99 0.1 S 7 11 4 6 1020.6 1020.6 0.0
30/06:00am 20.9 23.6 20.7 99 0.1 SSW 7 11 4 6 1020.1 1020.1 0.0
30/05:30am 20.8 23.5 20.6 99 0.1 S 7 9 4 5 1019.8 1019.8 0.0
30/05:00am 20.8 23.1 20.6 99 0.1 S 9 11 5 6 1019.7 1019.7 0.0
30/04:30am 20.7 22.9 20.5 99 0.1 SSW 9 11 5 6 1019.5 1019.5 0.0
30/04:00am 20.8 23.1 20.6 99 0.1 SSW 9 11 5 6 1019.5 1019.5 0.0
30/03:30am 20.8 23.5 20.6 99 0.1 S 7 11 4 6 1019.5 1019.5 0.0
30/03:00am 20.9 23.6 20.7 99 0.1 SSW 7 11 4 6 1019.7 1019.7 0.0
30/02:30am 21.0 24.0 20.8 99 0.1 S 6 9 3 5 1019.8 1019.8 0.0
30/02:00am 21.0 23.8 20.8 99 0.1 SSW 7 9 4 5 1020.1 1020.1 0.0
30/01:30am 21.0 23.8 20.8 99 0.1 S 7 9 4 5 1020.4 1020.4 0.0
30/01:00am 21.1 24.1 20.9 99 0.1 S 6 7 3 4 1020.7 1020.7 0.0
30/12:30am 21.4 25.0 21.2 99 0.1 S 4 9 2 5 1021.1 1021.1 0.0
30/12:00am 21.6 24.7 21.4 99 0.1 SSW 7 9 4 5 1021.3 1021.3 0.0
 
Date/Time
EST
Temp
°C
App
Temp
°C
Dew
Point
Rel
Hum
%
Delta-T
°C
Wind Press
QNH
hPa
Press
MSL
hPa
Rain
since 9 am
mm
Dir
 
Spd
km/h
Gust
km/h
Spd
kts
Gust
kts
29/11:30pm 21.6 24.9 21.4 99 0.1 SSW 6 9 3 5 1021.4 1021.4 0.0
29/11:00pm 21.6 24.3 21.4 99 0.1 SSW 9 13 5 7 1021.7 1021.7 0.0
29/10:30pm 21.6 23.9 21.4 99 0.1 SSW 11 13 6 7 1021.7 1021.7 0.0
29/10:00pm 21.8 25.0 21.6 99 0.1 SSW 7 9 4 5 1021.7 1021.7 0.0
29/09:30pm 22.0 25.2 21.3 96 0.5 WSW 6 7 3 4 1021.8 1021.8 0.0
29/09:00pm 22.0 25.0 21.3 96 0.5 SW 7 9 4 5 1021.7 1021.7 0.0

Other Formats:

Comma delimited format used in spreadsheet applications
http://www.bom.gov.au/fwo/IDQ60801/IDQ60801.94570.axf

JavaScript Object Notation format (JSON) in row-major order
http://www.bom.gov.au/fwo/IDQ60801/IDQ60801.94570.json